Time;durP1;ratioP1;P1;durP2;ratioP2;P2;SDS_P1;SDS_P2;PMS_P1;PMS_P2;Temp;Humidity;BMP_temperature;BMP_pressure;BME280_temperature;BME280_humidity;BME280_pressure;Samples;Min_cycle;Max_cycle;Signal;HPM_P1;HPM_P2
2023/07/12 00:00:27;;;;;;;3.33;1.20;;;;;;;;;;5028032;28;20421;-70
2023/07/12 00:02:53;;;;;;;5.68;1.40;;;;;;;;;;5026612;28;20411;-70
2023/07/12 00:05:19;;;;;;;1.90;1.20;;;;;;;;;;5027524;28;20029;-70
2023/07/12 00:07:45;;;;;;;2.40;1.25;;;;;;;;;;5027419;28;20041;-70
2023/07/12 00:10:32;;;;;;;2.40;1.30;;;;;;;;;;5027389;28;20049;-70
2023/07/12 00:12:57;;;;;;;2.60;1.10;;;;;;;;;;5027139;28;20033;-70
2023/07/12 00:15:29;;;;;;;3.38;1.15;;;;;;;;;;5038140;28;20056;-70
2023/07/12 00:17:55;;;;;;;7.57;1.20;;;;;;;;;;5061038;28;20029;-70
2023/07/12 00:20:26;;;;;;;4.63;1.42;;;;;;;;;;5026009;28;20034;-71
2023/07/12 00:22:51;;;;;;;7.43;1.40;;;;;;;;;;5027551;28;20585;-70
2023/07/12 00:25:19;;;;;;;6.43;1.60;;;;;;;;;;5027634;28;20026;-70
2023/07/12 00:27:44;;;;;;;5.40;1.67;;;;;;;;;;5027099;28;20049;-70
2023/07/12 00:30:15;;;;;;;3.25;1.58;;;;;;;;;;5027358;28;20030;-70
2023/07/12 00:32:40;;;;;;;5.65;1.77;;;;;;;;;;5028098;28;20021;-71
2023/07/12 00:35:06;;;;;;;5.55;1.65;;;;;;;;;;5026958;28;20032;-70
2023/07/12 00:37:32;;;;;;;3.00;1.67;;;;;;;;;;5027233;28;20037;-70
2023/07/12 00:39:57;;;;;;;9.10;1.80;;;;;;;;;;5027336;28;20461;-70
2023/07/12 00:42:28;;;;;;;4.55;1.90;;;;;;;;;;5027178;28;20037;-70
2023/07/12 00:44:57;;;;;;;4.22;1.60;;;;;;;;;;5026914;28;20013;-70
2023/07/12 00:47:23;;;;;;;6.30;1.60;;;;;;;;;;5030429;28;20091;-70
2023/07/12 00:49:48;;;;;;;4.13;1.60;;;;;;;;;;5035680;28;20033;-70
2023/07/12 00:52:18;;;;;;;4.38;1.83;;;;;;;;;;5034903;28;20128;-71
2023/07/12 00:54:54;;;;;;;6.72;1.98;;;;;;;;;;5026963;28;20061;-70
2023/07/12 00:57:25;;;;;;;5.57;1.88;;;;;;;;;;5026477;28;20511;-70
2023/07/12 00:59:55;;;;;;;3.55;1.33;;;;;;;;;;5027074;28;20436;-70
2023/07/12 01:02:24;;;;;;;4.55;1.90;;;;;;;;;;5027012;28;20040;-70
2023/07/12 01:04:51;;;;;;;5.57;1.85;;;;;;;;;;5024853;28;20032;-70
2023/07/12 01:07:19;;;;;;;3.35;1.58;;;;;;;;;;5026335;28;20038;-70
2023/07/12 01:09:45;;;;;;;2.47;1.50;;;;;;;;;;5025803;28;20044;-70
2023/07/12 01:12:10;;;;;;;5.95;1.90;;;;;;;;;;5028551;28;20029;-70
2023/07/12 01:14:38;;;;;;;4.25;1.80;;;;;;;;;;5023614;28;20021;-70
2023/07/12 01:17:06;;;;;;;3.53;1.90;;;;;;;;;;5022561;28;20033;-70
2023/07/12 01:19:34;;;;;;;3.22;1.92;;;;;;;;;;5034277;28;20581;-70
2023/07/12 01:21:59;;;;;;;2.35;1.65;;;;;;;;;;5059479;28;20040;-70
2023/07/12 01:24:26;;;;;;;2.72;1.70;;;;;;;;;;5025936;28;20034;-70
2023/07/12 01:26:58;;;;;;;2.47;1.60;;;;;;;;;;5032191;28;20021;-70
2023/07/12 01:29:25;;;;;;;4.60;1.88;;;;;;;;;;5032383;28;20068;-70
2023/07/12 01:31:51;;;;;;;7.35;1.38;;;;;;;;;;5025906;28;20083;-70
2023/07/12 01:34:17;;;;;;;4.20;1.65;;;;;;;;;;5025970;28;20033;-70
2023/07/12 01:36:43;;;;;;;4.30;1.70;;;;;;;;;;5037682;28;20061;-70
2023/07/12 01:39:09;;;;;;;5.18;1.85;;;;;;;;;;5024088;28;20125;-70
2023/07/12 01:41:34;;;;;;;8.18;2.08;;;;;;;;;;5009624;28;20028;-70
2023/07/12 01:44:00;;;;;;;6.90;1.52;;;;;;;;;;5011615;28;20030;-71
2023/07/12 01:46:25;;;;;;;5.07;2.05;;;;;;;;;;5023410;28;20046;-70
2023/07/12 01:48:50;;;;;;;4.88;1.73;;;;;;;;;;5025467;28;20033;-70
2023/07/12 01:51:17;;;;;;;3.03;1.60;;;;;;;;;;5024499;28;20025;-70
2023/07/12 01:53:43;;;;;;;3.90;1.77;;;;;;;;;;5026359;28;20075;-71
2023/07/12 01:56:11;;;;;;;4.85;1.67;;;;;;;;;;5025664;28;20029;-70
2023/07/12 01:58:36;;;;;;;4.93;1.98;;;;;;;;;;5025861;28;20051;-70
2023/07/12 02:01:02;;;;;;;3.10;1.63;;;;;;;;;;5025165;28;20030;-70
2023/07/12 02:03:27;;;;;;;5.13;2.00;;;;;;;;;;5068196;28;20030;-71
2023/07/12 02:05:53;;;;;;;4.45;1.80;;;;;;;;;;5024464;28;20523;-70
2023/07/12 02:08:20;;;;;;;5.07;2.00;;;;;;;;;;5025768;28;20030;-70
2023/07/12 02:10:46;;;;;;;6.28;2.20;;;;;;;;;;5034748;28;20144;-70
2023/07/12 02:13:11;;;;;;;3.05;1.80;;;;;;;;;;5026959;28;20154;-70
2023/07/12 02:15:37;;;;;;;4.55;1.90;;;;;;;;;;5030656;28;20033;-70
2023/07/12 02:18:02;;;;;;;5.88;2.15;;;;;;;;;;5036514;28;20021;-70
2023/07/12 02:20:28;;;;;;;2.58;1.63;;;;;;;;;;5030421;28;20025;-70
2023/07/12 02:22:54;;;;;;;6.00;2.70;;;;;;;;;;5025954;28;20059;-70
2023/07/12 02:25:20;;;;;;;4.55;2.58;;;;;;;;;;5024087;28;20095;-70
2023/07/12 02:27:46;;;;;;;5.30;2.78;;;;;;;;;;5037962;28;20041;-70
2023/07/12 02:30:17;;;;;;;5.95;2.65;;;;;;;;;;5025324;28;20029;-70
2023/07/12 02:32:43;;;;;;;9.48;2.70;;;;;;;;;;5024122;28;20771;-70
2023/07/12 02:35:09;;;;;;;4.78;2.60;;;;;;;;;;5025858;28;20120;-70
2023/07/12 02:37:35;;;;;;;5.88;2.63;;;;;;;;;;5069362;28;20491;-70
2023/07/12 02:40:00;;;;;;;6.68;2.58;;;;;;;;;;5024913;28;20592;-70
2023/07/12 02:42:26;;;;;;;3.92;2.30;;;;;;;;;;5025029;28;20029;-70
2023/07/12 02:44:51;;;;;;;6.60;2.42;;;;;;;;;;5025211;28;20479;-70
2023/07/12 02:47:16;;;;;;;4.95;2.42;;;;;;;;;;5025076;28;20060;-70
2023/07/12 02:49:42;;;;;;;7.40;2.90;;;;;;;;;;5021747;28;20087;-70
2023/07/12 02:52:08;;;;;;;6.90;2.55;;;;;;;;;;5011990;28;20041;-70
2023/07/12 02:54:34;;;;;;;8.32;2.70;;;;;;;;;;5024856;28;20039;-70
2023/07/12 02:57:01;;;;;;;4.15;2.13;;;;;;;;;;5025121;28;20025;-70
2023/07/12 02:59:27;;;;;;;6.63;2.55;;;;;;;;;;5025194;28;20029;-70
2023/07/12 03:01:53;;;;;;;6.00;2.40;;;;;;;;;;5023516;28;20083;-70
2023/07/12 03:04:20;;;;;;;6.15;2.70;;;;;;;;;;5025086;28;20075;-70
2023/07/12 03:06:45;;;;;;;6.97;2.40;;;;;;;;;;5024337;28;20049;-70
2023/07/12 03:09:11;;;;;;;9.23;2.65;;;;;;;;;;5025130;28;20048;-70
2023/07/12 03:11:37;;;;;;;4.47;2.33;;;;;;;;;;5025234;28;20025;-70
2023/07/12 03:14:04;;;;;;;4.90;2.60;;;;;;;;;;5024536;28;20049;-70
2023/07/12 03:16:30;;;;;;;6.80;2.60;;;;;;;;;;5056830;28;20103;-70
2023/07/12 03:18:56;;;;;;;4.15;2.25;;;;;;;;;;5024466;28;20040;-71
2023/07/12 03:21:21;;;;;;;7.85;2.40;;;;;;;;;;5023238;28;20041;-70
2023/07/12 03:23:47;;;;;;;6.88;2.58;;;;;;;;;;5024861;28;20036;-70
2023/07/12 03:26:13;;;;;;;6.40;2.50;;;;;;;;;;5027482;28;20349;-70
2023/07/12 03:28:38;;;;;;;3.47;2.38;;;;;;;;;;5034817;28;20072;-70
2023/07/12 03:31:07;;;;;;;4.90;2.50;;;;;;;;;;5024158;28;20124;-70
2023/07/12 03:33:33;;;;;;;5.35;2.63;;;;;;;;;;5026206;28;20033;-70
2023/07/12 03:35:59;;;;;;;6.80;2.92;;;;;;;;;;5028232;28;20336;-70
2023/07/12 03:38:25;;;;;;;5.90;2.45;;;;;;;;;;5027659;28;20029;-70
2023/07/12 03:40:51;;;;;;;7.28;2.33;;;;;;;;;;5027666;28;20087;-70
2023/07/12 03:43:17;;;;;;;4.03;2.53;;;;;;;;;;5033239;28;20034;-70
2023/07/12 03:45:43;;;;;;;8.32;2.47;;;;;;;;;;5038452;28;20034;-70
2023/07/12 03:48:08;;;;;;;7.65;2.25;;;;;;;;;;5031639;28;20120;-70
2023/07/12 03:50:37;;;;;;;4.88;2.22;;;;;;;;;;5027826;28;20120;-71
2023/07/12 03:53:02;;;;;;;4.35;2.20;;;;;;;;;;5027806;28;20061;-70
2023/07/12 03:55:27;;;;;;;6.40;2.05;;;;;;;;;;5027298;28;20072;-70
2023/07/12 03:57:52;;;;;;;7.05;2.35;;;;;;;;;;5027905;28;20056;-70
2023/07/12 04:00:18;;;;;;;5.43;2.10;;;;;;;;;;5027104;28;20065;-70
2023/07/12 04:02:43;;;;;;;4.43;2.10;;;;;;;;;;5028147;28;20029;-70
2023/07/12 04:05:08;;;;;;;6.32;2.15;;;;;;;;;;5027078;28;20052;-70
2023/07/12 04:07:34;;;;;;;5.70;2.55;;;;;;;;;;5027826;28;20041;-70
2023/07/12 04:09:59;;;;;;;5.57;2.33;;;;;;;;;;5027388;28;20061;-70
2023/07/12 04:12:24;;;;;;;8.88;2.22;;;;;;;;;;5026310;28;20057;-70
2023/07/12 04:14:50;;;;;;;4.72;2.40;;;;;;;;;;5027856;28;20031;-70
2023/07/12 04:17:15;;;;;;;5.45;2.47;;;;;;;;;;5027163;28;20048;-70
2023/07/12 04:19:41;;;;;;;6.85;2.28;;;;;;;;;;5027424;28;20466;-70
2023/07/12 04:22:06;;;;;;;9.60;2.63;;;;;;;;;;5027226;28;20041;-69
2023/07/12 04:24:32;;;;;;;4.47;2.22;;;;;;;;;;5058720;28;20030;-70
2023/07/12 04:26:59;;;;;;;5.65;2.45;;;;;;;;;;5036714;28;20112;-70
2023/07/12 04:29:24;;;;;;;5.60;2.17;;;;;;;;;;5031304;28;20030;-70
2023/07/12 04:31:49;;;;;;;7.00;2.28;;;;;;;;;;5026831;28;20033;-70
2023/07/12 04:34:15;;;;;;;8.02;3.00;;;;;;;;;;5025639;28;20049;-69
2023/07/12 04:36:41;;;;;;;7.45;2.50;;;;;;;;;;5025841;28;20029;-70
2023/07/12 04:39:08;;;;;;;5.18;2.40;;;;;;;;;;5023688;28;20028;-69
2023/07/12 04:41:33;;;;;;;3.67;2.08;;;;;;;;;;5027529;28;20028;-69
2023/07/12 04:43:58;;;;;;;9.60;2.72;;;;;;;;;;5025548;28;20037;-69
2023/07/12 04:46:24;;;;;;;7.00;2.40;;;;;;;;;;5026721;28;20033;-70
2023/07/12 04:48:49;;;;;;;7.43;2.88;;;;;;;;;;5026738;28;20186;-70
2023/07/12 04:51:14;;;;;;;9.57;2.85;;;;;;;;;;5026876;28;20067;-70
2023/07/12 04:53:41;;;;;;;6.82;2.83;;;;;;;;;;5027161;28;20025;-70
2023/07/12 04:56:07;;;;;;;7.15;2.58;;;;;;;;;;5026839;28;20034;-70
2023/07/12 04:58:33;;;;;;;6.85;2.58;;;;;;;;;;5026564;28;20044;-70
2023/07/12 05:00:59;;;;;;;4.65;2.60;;;;;;;;;;5026711;28;20096;-70
2023/07/12 05:03:25;;;;;;;7.60;2.70;;;;;;;;;;5025446;28;20111;-70
2023/07/12 05:05:50;;;;;;;9.48;2.42;;;;;;;;;;5026913;28;20519;-70
2023/07/12 05:08:16;;;;;;;6.75;2.70;;;;;;;;;;5027535;28;20063;-70
2023/07/12 05:10:41;;;;;;;5.65;2.75;;;;;;;;;;5030465;28;20037;-70
2023/07/12 05:13:07;;;;;;;10.77;2.58;;;;;;;;;;5037592;28;20030;-70
2023/07/12 05:15:32;;;;;;;5.05;2.30;;;;;;;;;;5032912;28;20507;-70
2023/07/12 05:17:58;;;;;;;7.25;2.97;;;;;;;;;;5027065;28;20025;-70
2023/07/12 05:20:23;;;;;;;9.50;3.03;;;;;;;;;;5025866;28;20038;-70
2023/07/12 05:22:48;;;;;;;7.25;2.97;;;;;;;;;;5025806;28;20038;-70
2023/07/12 05:25:14;;;;;;;5.80;2.58;;;;;;;;;;5026372;28;20645;-70
2023/07/12 05:27:40;;;;;;;5.60;2.42;;;;;;;;;;5039216;28;20037;-70
2023/07/12 05:30:06;;;;;;;7.30;2.85;;;;;;;;;;5026010;28;20029;-70
2023/07/12 05:32:31;;;;;;;7.97;2.72;;;;;;;;;;5026480;28;20022;-70
2023/07/12 05:34:56;;;;;;;7.50;3.03;;;;;;;;;;5026340;28;20036;-70
2023/07/12 05:37:22;;;;;;;8.55;2.70;;;;;;;;;;5026095;28;20091;-70
2023/07/12 05:39:48;;;;;;;8.35;2.53;;;;;;;;;;5016966;28;20038;-70
2023/07/12 05:42:13;;;;;;;6.28;2.67;;;;;;;;;;5024106;28;20111;-70
2023/07/12 05:44:38;;;;;;;5.22;2.22;;;;;;;;;;5026246;28;20077;-70
2023/07/12 05:47:04;;;;;;;5.88;2.40;;;;;;;;;;5025823;28;20276;-70
2023/07/12 05:49:30;;;;;;;6.97;2.83;;;;;;;;;;5025754;28;20034;-70
2023/07/12 05:51:56;;;;;;;11.43;2.67;;;;;;;;;;5025879;28;20028;-70
2023/07/12 05:54:21;;;;;;;7.05;2.70;;;;;;;;;;5024420;28;20029;-70
2023/07/12 05:56:46;;;;;;;6.55;2.78;;;;;;;;;;5026253;28;20364;-70
2023/07/12 05:59:12;;;;;;;7.18;3.00;;;;;;;;;;5025838;28;20065;-70
2023/07/12 06:01:37;;;;;;;6.32;2.85;;;;;;;;;;5021406;28;20041;-70
2023/07/12 06:04:03;;;;;;;6.20;2.60;;;;;;;;;;5057310;28;20037;-71
2023/07/12 06:06:28;;;;;;;5.78;2.50;;;;;;;;;;5025102;28;20033;-70
2023/07/12 06:08:53;;;;;;;9.10;3.20;;;;;;;;;;5025804;28;20053;-71
2023/07/12 06:11:19;;;;;;;4.20;2.30;;;;;;;;;;5025071;28;20029;-70
2023/07/12 06:13:44;;;;;;;11.43;3.05;;;;;;;;;;5025433;28;20037;-70
2023/07/12 06:16:09;;;;;;;6.57;2.35;;;;;;;;;;5023244;28;20067;-70
2023/07/12 06:18:35;;;;;;;9.18;2.90;;;;;;;;;;5020703;28;20038;-70
2023/07/12 06:21:02;;;;;;;7.07;3.20;;;;;;;;;;5023067;28;20026;-70
2023/07/12 06:23:29;;;;;;;10.02;3.00;;;;;;;;;;5018805;28;20017;-70
2023/07/12 06:25:58;;;;;;;10.05;3.15;;;;;;;;;;5006794;28;20656;-70
2023/07/12 06:28:24;;;;;;;6.18;2.58;;;;;;;;;;5012900;28;20628;-70
2023/07/12 06:30:50;;;;;;;5.88;2.50;;;;;;;;;;5041691;28;20034;-70
2023/07/12 06:33:16;;;;;;;7.88;2.60;;;;;;;;;;5025396;28;20030;-70
2023/07/12 06:35:41;;;;;;;7.47;2.53;;;;;;;;;;5025015;28;20403;-70
2023/07/12 06:38:07;;;;;;;7.18;2.78;;;;;;;;;;5029383;28;20041;-70
2023/07/12 06:40:32;;;;;;;6.80;2.67;;;;;;;;;;5034874;28;20034;-70
2023/07/12 06:42:58;;;;;;;7.28;2.53;;;;;;;;;;5028521;28;20049;-70
2023/07/12 06:45:23;;;;;;;7.18;3.40;;;;;;;;;;5024164;28;20040;-70
2023/07/12 06:47:48;;;;;;;6.72;2.78;;;;;;;;;;5025692;28;20029;-68
2023/07/12 06:50:14;;;;;;;13.07;2.97;;;;;;;;;;5025143;28;20037;-70
2023/07/12 06:52:39;;;;;;;8.32;3.00;;;;;;;;;;5023173;28;20033;-70
2023/07/12 06:55:06;;;;;;;8.68;3.13;;;;;;;;;;5025091;28;20034;-70
2023/07/12 06:57:34;;;;;;;8.98;3.40;;;;;;;;;;5023324;28;20025;-70
2023/07/12 07:00:04;;;;;;;10.52;3.30;;;;;;;;;;5009157;28;20048;-70
2023/07/12 07:02:29;;;;;;;9.05;3.30;;;;;;;;;;5003691;28;20021;-70
2023/07/12 07:04:55;;;;;;;8.60;2.95;;;;;;;;;;5019324;28;20045;-71
2023/07/12 07:07:20;;;;;;;6.75;3.00;;;;;;;;;;5010636;28;20049;-71
2023/07/12 07:09:45;;;;;;;6.68;2.70;;;;;;;;;;5024437;28;20034;-71
2023/07/12 07:12:11;;;;;;;6.65;2.90;;;;;;;;;;5029207;28;20029;-71
2023/07/12 07:14:36;;;;;;;9.93;3.33;;;;;;;;;;5027203;28;20155;-70
2023/07/12 07:17:01;;;;;;;10.15;3.28;;;;;;;;;;5026443;28;20394;-71
2023/07/12 07:19:27;;;;;;;8.90;2.58;;;;;;;;;;5023864;28;20034;-71
2023/07/12 07:21:52;;;;;;;7.03;2.60;;;;;;;;;;5023280;28;20664;-71
2023/07/12 07:24:17;;;;;;;6.00;2.65;;;;;;;;;;5025313;28;20068;-71
2023/07/12 07:26:44;;;;;;;7.93;2.85;;;;;;;;;;5034178;28;20307;-71
2023/07/12 07:29:09;;;;;;;10.40;2.65;;;;;;;;;;5032099;28;20040;-70
2023/07/12 07:31:35;;;;;;;8.38;2.50;;;;;;;;;;5026269;28;20037;-71
2023/07/12 07:34:00;;;;;;;8.48;2.95;;;;;;;;;;5026030;28;20936;-71
2023/07/12 07:36:25;;;;;;;7.78;2.90;;;;;;;;;;5026729;28;20033;-71
2023/07/12 07:38:51;;;;;;;13.55;3.60;;;;;;;;;;5025172;28;20028;-70
2023/07/12 07:41:16;;;;;;;7.47;3.00;;;;;;;;;;5026512;28;20522;-71
2023/07/12 07:43:44;;;;;;;8.63;3.08;;;;;;;;;;5025573;28;20119;-71
2023/07/12 07:46:13;;;;;;;8.23;3.20;;;;;;;;;;5035134;28;20037;-71
2023/07/12 07:48:38;;;;;;;7.13;2.80;;;;;;;;;;5026812;28;20526;-70
2023/07/12 07:51:04;;;;;;;6.18;2.67;;;;;;;;;;5026313;28;20060;-70
2023/07/12 07:53:29;;;;;;;11.95;2.85;;;;;;;;;;5019508;28;20033;-70
2023/07/12 07:55:54;;;;;;;9.77;3.10;;;;;;;;;;5025485;28;20041;-70
2023/07/12 07:58:21;;;;;;;6.72;2.42;;;;;;;;;;5025830;28;20087;-70
2023/07/12 08:00:47;;;;;;;9.18;2.70;;;;;;;;;;5024568;28;20422;-70
2023/07/12 08:03:12;;;;;;;7.28;2.58;;;;;;;;;;5026739;28;20048;-70
2023/07/12 08:05:38;;;;;;;5.47;2.67;;;;;;;;;;5029472;28;20072;-70
2023/07/12 08:08:04;;;;;;;6.45;2.55;;;;;;;;;;5035601;28;20041;-70
2023/07/12 08:10:29;;;;;;;8.40;3.00;;;;;;;;;;5047700;28;20033;-70
2023/07/12 08:12:56;;;;;;;11.15;3.13;;;;;;;;;;5027701;28;20078;-70
2023/07/12 08:15:22;;;;;;;5.35;2.40;;;;;;;;;;5026082;28;20099;-70
2023/07/12 08:17:48;;;;;;;8.60;2.78;;;;;;;;;;5025807;28;20027;-70
2023/07/12 08:20:13;;;;;;;5.60;2.35;;;;;;;;;;5017632;28;20053;-70
2023/07/12 08:22:39;;;;;;;9.15;2.53;;;;;;;;;;5023640;28;20572;-70
2023/07/12 08:25:05;;;;;;;3.75;2.45;;;;;;;;;;5023694;28;20116;-71
2023/07/12 08:27:33;;;;;;;8.88;2.40;;;;;;;;;;5023799;28;20808;-71
2023/07/12 08:29:59;;;;;;;6.05;2.30;;;;;;;;;;5023893;28;20070;-71
2023/07/12 08:32:27;;;;;;;4.78;2.10;;;;;;;;;;5024292;28;20061;-70
2023/07/12 08:34:54;;;;;;;3.35;2.05;;;;;;;;;;5023014;28;20037;-70
2023/07/12 08:37:19;;;;;;;6.43;2.78;;;;;;;;;;5023774;28;20029;-70
2023/07/12 08:39:44;;;;;;;5.97;2.17;;;;;;;;;;5022804;28;20038;-70
2023/07/12 08:42:13;;;;;;;7.43;2.42;;;;;;;;;;5018678;28;20514;-70
2023/07/12 08:44:39;;;;;;;11.07;3.10;;;;;;;;;;5013874;28;20025;-70
2023/07/12 08:47:07;;;;;;;8.93;3.00;;;;;;;;;;5011025;28;20162;-71
2023/07/12 08:49:32;;;;;;;9.02;2.55;;;;;;;;;;5016905;28;20033;-70
2023/07/12 08:52:05;;;;;;;7.07;2.55;;;;;;;;;;5015049;28;20616;-70
2023/07/12 08:54:34;;;;;;;3.80;2.17;;;;;;;;;;5014410;28;20107;-70
2023/07/12 08:57:18;;;;;;;7.00;2.30;;;;;;;;;;5018296;28;20036;-70
2023/07/12 09:00:07;;;;;;;7.55;2.55;;;;;;;;;;5015604;28;20022;-70
2023/07/12 09:02:33;;;;;;;7.13;2.30;;;;;;;;;;5012579;28;20056;-70
2023/07/12 09:05:09;;;;;;;5.93;2.00;;;;;;;;;;5013154;28;20263;-70
2023/07/12 09:07:35;;;;;;;7.32;2.20;;;;;;;;;;5016448;28;20060;-70
2023/07/12 09:10:01;;;;;;;6.70;2.25;;;;;;;;;;5018598;28;20478;-70
2023/07/12 09:12:32;;;;;;;5.85;2.10;;;;;;;;;;5012716;28;20046;-70
2023/07/12 09:15:00;;;;;;;5.57;2.30;;;;;;;;;;5016572;28;20151;-70
2023/07/12 09:17:28;;;;;;;6.65;2.25;;;;;;;;;;5009625;28;20044;-70
2023/07/12 09:19:53;;;;;;;5.53;2.10;;;;;;;;;;5028391;28;20045;-72
2023/07/12 09:22:20;;;;;;;7.88;2.38;;;;;;;;;;5023140;28;20056;-70
2023/07/12 09:24:51;;;;;;;6.53;1.95;;;;;;;;;;5022660;28;20116;-70
2023/07/12 09:27:19;;;;;;;5.28;2.25;;;;;;;;;;5023347;28;20049;-71
2023/07/12 09:29:45;;;;;;;5.70;2.47;;;;;;;;;;5023357;28;20664;-71
2023/07/12 09:32:19;;;;;;;6.28;2.25;;;;;;;;;;5025157;28;20041;-71
2023/07/12 09:34:47;;;;;;;4.75;1.90;;;;;;;;;;5015414;28;20076;-70
2023/07/12 09:37:15;;;;;;;3.67;2.00;;;;;;;;;;5033069;28;20033;-71
2023/07/12 09:39:40;;;;;;;6.28;2.20;;;;;;;;;;5032402;28;20082;-70
2023/07/12 09:42:14;;;;;;;5.15;2.50;;;;;;;;;;5019257;28;20033;-71
2023/07/12 09:44:47;;;;;;;6.15;2.10;;;;;;;;;;5023590;28;20069;-71
2023/07/12 09:47:43;;;;;;;5.13;2.10;;;;;;;;;;5023114;28;20376;-71
2023/07/12 09:50:18;;;;;;;6.43;2.22;;;;;;;;;;5012611;28;20088;-71
2023/07/12 09:52:52;;;;;;;5.72;2.30;;;;;;;;;;5019487;28;20075;-71
2023/07/12 09:55:51;;;;;;;6.95;2.00;;;;;;;;;;5015729;28;20876;-71
2023/07/12 09:58:31;;;;;;;5.70;2.20;;;;;;;;;;4999927;28;20137;-70
2023/07/12 10:01:39;;;;;;;2.47;1.70;;;;;;;;;;5021088;28;20404;-70
2023/07/12 10:04:43;;;;;;;3.55;2.00;;;;;;;;;;5001203;28;20189;-70
2023/07/12 10:07:17;;;;;;;5.32;2.00;;;;;;;;;;5001451;28;20045;-70
2023/07/12 10:09:46;;;;;;;5.05;1.70;;;;;;;;;;5010706;28;20204;-70
2023/07/12 10:12:32;;;;;;;6.88;1.85;;;;;;;;;;5015109;28;20106;-70
2023/07/12 10:14:58;;;;;;;2.95;1.70;;;;;;;;;;5010720;28;20530;-70
2023/07/12 10:17:31;;;;;;;6.72;1.95;;;;;;;;;;5042026;28;20091;-70
2023/07/12 10:19:57;;;;;;;5.20;2.08;;;;;;;;;;5041233;28;20032;-71
2023/07/12 10:22:33;;;;;;;6.20;2.17;;;;;;;;;;5039236;28;20041;-71
2023/07/12 10:25:01;;;;;;;4.07;1.70;;;;;;;;;;5039965;28;20040;-70
2023/07/12 10:27:32;;;;;;;5.20;1.75;;;;;;;;;;5044824;28;20634;-70
2023/07/12 10:30:10;;;;;;;2.60;1.65;;;;;;;;;;5029071;28;20092;-70
2023/07/12 10:32:41;;;;;;;4.45;2.03;;;;;;;;;;5021218;28;20033;-71
2023/07/12 10:35:15;;;;;;;8.15;2.60;;;;;;;;;;5021321;28;20156;-71
2023/07/12 10:37:47;;;;;;;8.90;2.20;;;;;;;;;;5017054;28;20030;-70
2023/07/12 10:40:16;;;;;;;4.32;2.03;;;;;;;;;;5022923;28;20140;-71
2023/07/12 10:42:46;;;;;;;6.80;1.90;;;;;;;;;;5021762;28;20144;-71
2023/07/12 10:45:20;;;;;;;6.32;1.70;;;;;;;;;;5022382;28;20052;-71
2023/07/12 10:47:47;;;;;;;4.80;1.65;;;;;;;;;;5016195;28;20882;-71
2023/07/12 10:50:34;;;;;;;7.30;2.00;;;;;;;;;;5028139;28;20419;-71
2023/07/12 10:53:22;;;;;;;4.97;1.55;;;;;;;;;;5013345;28;20041;-71
2023/07/12 10:55:54;;;;;;;4.05;1.55;;;;;;;;;;5020160;28;20037;-70
2023/07/12 10:58:58;;;;;;;3.83;1.60;;;;;;;;;;5011430;28;20037;-70
2023/07/12 11:01:40;;;;;;;;;;;;;;;;;;5018620;28;20068;-70
2023/07/12 11:04:22;;;;;;;2.22;1.20;;;;;;;;;;5025923;28;19921;-69
2023/07/12 11:07:21;;;;;;;3.40;1.33;;;;;;;;;;5026848;28;20045;-71
2023/07/12 11:09:49;;;;;;;4.25;1.40;;;;;;;;;;5020661;28;20037;-70
2023/07/12 11:12:39;;;;;;;1.83;1.17;;;;;;;;;;5016965;28;20360;-70
2023/07/12 11:15:22;;;;;;;6.38;1.42;;;;;;;;;;5007763;28;20052;-70
2023/07/12 11:18:20;;;;;;;4.75;1.30;;;;;;;;;;5016634;28;20040;-70
2023/07/12 11:20:57;;;;;;;3.70;1.40;;;;;;;;;;5018951;28;20084;-70
2023/07/12 11:23:38;;;;;;;9.20;1.73;;;;;;;;;;5021118;28;20076;-70
2023/07/12 11:26:18;;;;;;;3.67;1.38;;;;;;;;;;5008745;28;20052;-70
2023/07/12 11:28:44;;;;;;;2.50;1.58;;;;;;;;;;5020983;28;20096;-70
2023/07/12 11:31:29;;;;;;;1.63;1.30;;;;;;;;;;5020657;28;20033;-70
2023/07/12 11:34:02;;;;;;;2.67;1.27;;;;;;;;;;5021353;28;20584;-70
2023/07/12 11:36:33;;;;;;;4.03;1.13;;;;;;;;;;5018500;28;20048;-70
2023/07/12 11:38:59;;;;;;;1.92;1.48;;;;;;;;;;5021155;28;20075;-70
2023/07/12 11:41:27;;;;;;;1.52;1.17;;;;;;;;;;5021046;28;20060;-71
2023/07/12 11:44:05;;;;;;;2.78;1.00;;;;;;;;;;5019276;28;20507;-70
2023/07/12 11:46:36;;;;;;;4.22;1.25;;;;;;;;;;5021484;28;20052;-70
2023/07/12 11:49:14;;;;;;;3.47;1.20;;;;;;;;;;5019334;28;20664;-70
2023/07/12 11:51:42;;;;;;;2.28;1.23;;;;;;;;;;5018566;28;20033;-71
2023/07/12 11:54:36;;;;;;;5.28;1.35;;;;;;;;;;5024196;28;20113;-70
2023/07/12 11:57:02;;;;;;;2.15;1.13;;;;;;;;;;5023524;28;20037;-71
2023/07/12 11:59:39;;;;;;;4.55;1.35;;;;;;;;;;5024640;28;20091;-71
2023/07/12 12:02:12;;;;;;;1.38;0.90;;;;;;;;;;5017689;28;20317;-70
2023/07/12 12:04:38;;;;;;;1.85;1.20;;;;;;;;;;5016833;28;20041;-70
2023/07/12 12:07:33;;;;;;;2.85;1.30;;;;;;;;;;5009924;28;20705;-70
2023/07/12 12:09:59;;;;;;;8.27;1.60;;;;;;;;;;5016987;28;20684;-70
2023/07/12 12:12:30;;;;;;;2.63;1.20;;;;;;;;;;5020540;28;20044;-70
2023/07/12 12:14:55;;;;;;;1.95;1.33;;;;;;;;;;5023600;28;20032;-70
2023/07/12 12:17:35;;;;;;;2.45;1.38;;;;;;;;;;5024190;28;20568;-70
2023/07/12 12:20:14;;;;;;;6.90;1.45;;;;;;;;;;5023521;28;20514;-70
2023/07/12 12:22:42;;;;;;;3.95;1.17;;;;;;;;;;5022937;28;20086;-70
2023/07/12 12:25:17;;;;;;;2.08;1.10;;;;;;;;;;5022559;28;20034;-70
2023/07/12 12:27:43;;;;;;;2.00;1.40;;;;;;;;;;5034633;28;20079;-70
2023/07/12 12:30:15;;;;;;;2.88;1.60;;;;;;;;;;5029165;28;20026;-70
2023/07/12 12:32:41;;;;;;;2.80;1.10;;;;;;;;;;5033610;28;20029;-70
2023/07/12 12:35:13;;;;;;;1.90;1.20;;;;;;;;;;5033110;28;20577;-70
2023/07/12 12:37:39;;;;;;;2.92;1.10;;;;;;;;;;5024919;28;20038;-70
2023/07/12 12:40:16;;;;;;;4.10;1.23;;;;;;;;;;5014888;28;20041;-70
2023/07/12 12:43:03;;;;;;;7.70;1.20;;;;;;;;;;5013312;28;20041;-70
2023/07/12 12:45:32;;;;;;;1.90;1.15;;;;;;;;;;5016060;28;20139;-71
2023/07/12 12:47:58;;;;;;;3.25;1.15;;;;;;;;;;5012360;28;20064;-70
2023/07/12 12:50:25;;;;;;;1.95;1.00;;;;;;;;;;5012963;28;20426;-70
2023/07/12 12:52:50;;;;;;;3.05;1.33;;;;;;;;;;5022034;28;20041;-70
2023/07/12 12:55:15;;;;;;;4.60;2.20;;;;;;;;;;5023926;28;20034;-70
2023/07/12 12:57:41;;;;;;;3.83;1.10;;;;;;;;;;5022880;28;20091;-70
2023/07/12 13:00:21;;;;;;;2.45;0.90;;;;;;;;;;5023361;28;20033;-70
2023/07/12 13:02:47;;;;;;;2.70;1.13;;;;;;;;;;5022555;28;20588;-70
2023/07/12 13:05:14;;;;;;;2.72;1.00;;;;;;;;;;5022107;28;20049;-70
2023/07/12 13:07:42;;;;;;;3.72;1.13;;;;;;;;;;5023318;28;20450;-71
2023/07/12 13:10:16;;;;;;;3.67;1.40;;;;;;;;;;5021235;28;20041;-71
2023/07/12 13:12:42;;;;;;;2.05;1.10;;;;;;;;;;5021286;28;20037;-71
2023/07/12 13:15:13;;;;;;;3.35;1.20;;;;;;;;;;5022822;28;20025;-71
2023/07/12 13:17:38;;;;;;;3.50;1.40;;;;;;;;;;5019321;28;20025;-71
2023/07/12 13:20:04;;;;;;;2.80;1.00;;;;;;;;;;5021969;28;20046;-71
2023/07/12 13:22:30;;;;;;;94.20;7.90;;;;;;;;;;5021030;28;20044;-71
2023/07/12 13:24:56;;;;;;;17.67;1.95;;;;;;;;;;5023773;28;20037;-71
2023/07/12 13:27:21;;;;;;;2.08;1.15;;;;;;;;;;5048381;28;20048;-69
2023/07/12 13:29:48;;;;;;;1.48;1.00;;;;;;;;;;5006768;28;20038;-70
2023/07/12 13:32:13;;;;;;;1.85;0.93;;;;;;;;;;5005601;28;20045;-71
2023/07/12 13:34:39;;;;;;;2.38;1.02;;;;;;;;;;5005108;28;22017;-71
2023/07/12 13:37:04;;;;;;;4.05;1.13;;;;;;;;;;5023174;28;20029;-70
2023/07/12 13:39:31;;;;;;;3.47;1.13;;;;;;;;;;5023151;28;20501;-70
2023/07/12 13:41:57;;;;;;;3.15;1.20;;;;;;;;;;5020970;28;20479;-70
2023/07/12 13:44:24;;;;;;;1.90;1.00;;;;;;;;;;5022726;28;20040;-70
2023/07/12 13:46:50;;;;;;;4.07;0.90;;;;;;;;;;5021363;28;20453;-70
2023/07/12 13:49:17;;;;;;;3.50;0.90;;;;;;;;;;5023470;28;20749;-70
2023/07/12 13:51:43;;;;;;;3.42;1.20;;;;;;;;;;5023570;28;20025;-70
2023/07/12 13:54:09;;;;;;;2.63;1.10;;;;;;;;;;5024230;28;20780;-70
2023/07/12 13:56:35;;;;;;;2.47;0.90;;;;;;;;;;5026016;28;20598;-70
2023/07/12 13:59:00;;;;;;;4.20;1.08;;;;;;;;;;5031061;28;20701;-70
2023/07/12 14:01:28;;;;;;;2.53;1.10;;;;;;;;;;5034143;28;20047;-70
2023/07/12 14:03:58;;;;;;;2.08;1.02;;;;;;;;;;5023910;28;20037;-70
2023/07/12 14:06:25;;;;;;;3.10;1.27;;;;;;;;;;5022014;28;20427;-71
2023/07/12 14:08:50;;;;;;;1.67;0.98;;;;;;;;;;5023212;28;20028;-71
2023/07/12 14:11:29;;;;;;;2.58;1.10;;;;;;;;;;5022761;28;20538;-70
2023/07/12 14:13:54;;;;;;;2.30;1.00;;;;;;;;;;5021050;28;20048;-71
2023/07/12 14:16:22;;;;;;;2.03;1.08;;;;;;;;;;5021988;28;20037;-70
2023/07/12 14:18:47;;;;;;;2.75;0.90;;;;;;;;;;5022646;28;20123;-70
2023/07/12 14:21:14;;;;;;;2.88;1.00;;;;;;;;;;5021090;28;20045;-71
2023/07/12 14:23:40;;;;;;;2.28;0.88;;;;;;;;;;5022932;28;20024;-71
2023/07/12 14:26:17;;;;;;;2.67;0.82;;;;;;;;;;5023748;28;20052;-71
2023/07/12 14:28:44;;;;;;;3.40;1.17;;;;;;;;;;5032745;28;20128;-70
2023/07/12 14:31:14;;;;;;;3.88;1.25;;;;;;;;;;5022479;28;20037;-70
2023/07/12 14:33:40;;;;;;;2.45;1.20;;;;;;;;;;5022804;28;20037;-71
2023/07/12 14:36:05;;;;;;;4.38;1.40;;;;;;;;;;5022170;28;20352;-70
2023/07/12 14:38:31;;;;;;;5.68;1.30;;;;;;;;;;5022887;28;20045;-70
2023/07/12 14:40:56;;;;;;;2.30;0.90;;;;;;;;;;5021904;28;20094;-70
2023/07/12 14:43:22;;;;;;;2.78;1.17;;;;;;;;;;5022261;28;20038;-70
2023/07/12 14:45:49;;;;;;;3.60;2.03;;;;;;;;;;5021834;28;20890;-70
2023/07/12 14:48:15;;;;;;;2.78;0.90;;;;;;;;;;5022321;28;20036;-71
2023/07/12 14:50:41;;;;;;;5.15;1.48;;;;;;;;;;5021351;28;20025;-71